Time;durP1;ratioP1;P1;durP2;ratioP2;P2;SDS_P1;SDS_P2;PMS_P1;PMS_P2;Temp;Humidity;BMP_temperature;BMP_pressure;BME280_temperature;BME280_humidity;BME280_pressure;Samples;Min_cycle;Max_cycle;Signal;HPM_P1;HPM_P2
2021/08/25 00:01:53;;;;;;;3.63;3.03;;;;;;;;;;5087203;28;20471;-78
2021/08/25 00:04:22;;;;;;;4.57;3.57;;;;;;;;;;5088846;28;20431;-82
2021/08/25 00:06:49;;;;;;;3.97;3.13;;;;;;;;;;5090702;28;20453;-82
2021/08/25 00:09:16;;;;;;;3.33;3.03;;;;;;;;;;5103521;28;20469;-81
2021/08/25 00:11:43;;;;;;;4.40;3.30;;;;;;;;;;5111228;28;20947;-78
2021/08/25 00:14:10;;;;;;;4.00;2.90;;;;;;;;;;5111904;28;20442;-79
2021/08/25 00:16:38;;;;;;;3.77;2.60;;;;;;;;;;5106994;28;20430;-80
2021/08/25 00:19:05;;;;;;;4.80;3.10;;;;;;;;;;5108362;28;20439;-80
2021/08/25 00:21:33;;;;;;;3.53;2.60;;;;;;;;;;5111086;28;20682;-80
2021/08/25 00:24:00;;;;;;;4.50;3.27;;;;;;;;;;5112452;28;20449;-78
2021/08/25 00:26:28;;;;;;;4.07;2.80;;;;;;;;;;5111556;28;20449;-80
2021/08/25 00:28:55;;;;;;;3.63;2.80;;;;;;;;;;5110810;28;22161;-81
2021/08/25 00:31:22;;;;;;;3.43;2.63;;;;;;;;;;5107007;28;20468;-82
2021/08/25 00:33:49;;;;;;;4.73;3.13;;;;;;;;;;5108949;28;20478;-79
2021/08/25 00:36:16;;;;;;;3.53;3.10;;;;;;;;;;5111231;28;20780;-80
2021/08/25 00:38:45;;;;;;;3.43;2.60;;;;;;;;;;5111325;28;20442;-78
2021/08/25 00:41:12;;;;;;;4.90;2.87;;;;;;;;;;5111524;28;20465;-78
2021/08/25 00:43:39;;;;;;;3.50;3.07;;;;;;;;;;5112203;28;20460;-81
2021/08/25 00:46:07;;;;;;;4.37;2.97;;;;;;;;;;5109736;28;20452;-81
2021/08/25 00:48:34;;;;;;;3.40;2.47;;;;;;;;;;5107191;28;20437;-82
2021/08/25 00:51:01;;;;;;;3.33;2.80;;;;;;;;;;5109396;28;20455;-82
2021/08/25 00:53:28;;;;;;;5.47;3.33;;;;;;;;;;5110749;28;20496;-78
2021/08/25 00:55:58;;;;;;;4.10;2.80;;;;;;;;;;5111405;28;20440;-80
2021/08/25 00:58:25;;;;;;;4.97;3.20;;;;;;;;;;5110857;28;20447;-78
2021/08/25 01:00:55;;;;;;;5.60;2.77;;;;;;;;;;5107491;28;20771;-79
2021/08/25 01:03:26;;;;;;;4.60;3.17;;;;;;;;;;5108253;28;20427;-80
2021/08/25 01:05:53;;;;;;;4.77;3.27;;;;;;;;;;5110903;28;20891;-77
2021/08/25 01:08:20;;;;;;;4.43;3.23;;;;;;;;;;5110127;28;20813;-79
2021/08/25 01:10:47;;;;;;;3.83;3.37;;;;;;;;;;5110760;28;20554;-82
2021/08/25 01:13:16;;;;;;;3.90;3.10;;;;;;;;;;5110037;28;21009;-81
2021/08/25 01:15:44;;;;;;;4.23;3.00;;;;;;;;;;5106803;28;20433;-81
2021/08/25 01:18:13;;;;;;;3.43;2.93;;;;;;;;;;5090909;28;20442;-82
2021/08/25 01:20:40;;;;;;;3.80;2.70;;;;;;;;;;5110741;28;20968;-82
2021/08/25 01:23:07;;;;;;;5.97;2.90;;;;;;;;;;5110299;28;20792;-79
2021/08/25 01:25:34;;;;;;;3.67;2.80;;;;;;;;;;5110806;28;20439;-79
2021/08/25 01:28:04;;;;;;;4.80;3.60;;;;;;;;;;5112136;28;20463;-80
2021/08/25 01:30:33;;;;;;;3.90;3.17;;;;;;;;;;5088778;28;20444;-80
2021/08/25 01:33:00;;;;;;;4.50;3.30;;;;;;;;;;5107166;28;20477;-78
2021/08/25 01:35:35;;;;;;;3.10;2.63;;;;;;;;;;5110662;28;20435;-81
2021/08/25 01:38:03;;;;;;;3.00;2.60;;;;;;;;;;5109990;28;20918;-77
2021/08/25 01:40:31;;;;;;;6.73;3.30;;;;;;;;;;5110564;28;20453;-79
2021/08/25 01:42:58;;;;;;;4.07;3.27;;;;;;;;;;5108074;28;20436;-79
2021/08/25 01:45:25;;;;;;;5.80;3.30;;;;;;;;;;5105780;28;20427;-81
2021/08/25 01:47:54;;;;;;;3.80;2.90;;;;;;;;;;5113580;28;20799;-80
2021/08/25 01:50:21;;;;;;;3.60;3.23;;;;;;;;;;5113863;28;20774;-78
2021/08/25 01:52:48;;;;;;;3.07;2.77;;;;;;;;;;5096042;28;20493;-79
2021/08/25 01:55:16;;;;;;;2.70;2.50;;;;;;;;;;5114035;28;20455;-81
2021/08/25 01:57:43;;;;;;;3.87;3.10;;;;;;;;;;5093146;28;20439;-80
2021/08/25 02:00:11;;;;;;;5.53;3.33;;;;;;;;;;5110716;28;21934;-79
2021/08/25 02:02:38;;;;;;;4.07;3.00;;;;;;;;;;5113456;28;20925;-79
2021/08/25 02:05:07;;;;;;;3.60;3.30;;;;;;;;;;5113696;28;20712;-78
2021/08/25 02:07:34;;;;;;;3.70;2.90;;;;;;;;;;5114638;28;20845;-79
2021/08/25 02:10:01;;;;;;;4.37;3.00;;;;;;;;;;5114122;28;20836;-81
2021/08/25 02:12:28;;;;;;;4.80;3.07;;;;;;;;;;5113924;28;20479;-80
2021/08/25 02:14:56;;;;;;;3.93;3.17;;;;;;;;;;5109934;28;20442;-81
2021/08/25 02:17:23;;;;;;;3.00;2.50;;;;;;;;;;5111774;28;20432;-77
2021/08/25 02:19:50;;;;;;;3.93;2.90;;;;;;;;;;5113569;28;20470;-81
2021/08/25 02:22:18;;;;;;;3.53;3.20;;;;;;;;;;5113863;28;20438;-79
2021/08/25 02:24:45;;;;;;;3.20;2.87;;;;;;;;;;5113875;28;20445;-79
2021/08/25 02:27:13;;;;;;;3.23;2.93;;;;;;;;;;5115002;28;20453;-78
2021/08/25 02:29:40;;;;;;;4.17;3.23;;;;;;;;;;5115868;28;20886;-78
2021/08/25 02:32:07;;;;;;;3.43;3.00;;;;;;;;;;5116362;28;20442;-81
2021/08/25 02:34:34;;;;;;;3.07;2.67;;;;;;;;;;5114264;28;20497;-81
2021/08/25 02:37:02;;;;;;;5.67;4.00;;;;;;;;;;5109351;28;20431;-79
2021/08/25 02:39:30;;;;;;;4.33;3.50;;;;;;;;;;5111315;28;20436;-80
2021/08/25 02:41:57;;;;;;;4.70;3.40;;;;;;;;;;5113296;28;20461;-79
2021/08/25 02:44:24;;;;;;;3.27;2.93;;;;;;;;;;5113355;28;20438;-80
2021/08/25 02:46:52;;;;;;;3.77;2.60;;;;;;;;;;5107579;28;20469;-78
2021/08/25 02:49:19;;;;;;;4.10;3.07;;;;;;;;;;5111264;28;20442;-80
2021/08/25 02:51:46;;;;;;;4.47;3.17;;;;;;;;;;5115517;28;20458;-81
2021/08/25 02:54:13;;;;;;;3.97;3.20;;;;;;;;;;5115504;28;20486;-81
2021/08/25 02:56:42;;;;;;;4.37;3.80;;;;;;;;;;5113572;28;20429;-82
2021/08/25 02:59:09;;;;;;;4.10;3.10;;;;;;;;;;5108871;28;20445;-78
2021/08/25 03:01:36;;;;;;;3.43;3.13;;;;;;;;;;5110878;28;20450;-80
2021/08/25 03:04:03;;;;;;;4.27;3.30;;;;;;;;;;5112920;28;20450;-80
2021/08/25 03:06:30;;;;;;;3.97;3.30;;;;;;;;;;5113026;28;20438;-80
2021/08/25 03:08:57;;;;;;;3.70;2.77;;;;;;;;;;5112648;28;20472;-80
2021/08/25 03:11:24;;;;;;;3.20;2.90;;;;;;;;;;5114108;28;20993;-77
2021/08/25 03:13:53;;;;;;;3.90;3.50;;;;;;;;;;5114794;28;20481;-79
2021/08/25 03:16:20;;;;;;;3.63;3.03;;;;;;;;;;5114964;28;20446;-80
2021/08/25 03:18:47;;;;;;;3.67;2.93;;;;;;;;;;5113304;28;20438;-79
2021/08/25 03:21:14;;;;;;;6.00;3.60;;;;;;;;;;5108248;28;20458;-80
2021/08/25 03:23:41;;;;;;;4.20;3.60;;;;;;;;;;5110771;28;20441;-81
2021/08/25 03:26:09;;;;;;;3.30;3.00;;;;;;;;;;5112496;28;20443;-78
2021/08/25 03:28:36;;;;;;;3.30;2.80;;;;;;;;;;5112445;28;20453;-82
2021/08/25 03:31:04;;;;;;;4.90;3.53;;;;;;;;;;5112672;28;20978;-79
2021/08/25 03:33:31;;;;;;;4.47;2.87;;;;;;;;;;5113888;28;20486;-81
2021/08/25 03:35:59;;;;;;;4.10;3.20;;;;;;;;;;5114731;28;20531;-79
2021/08/25 03:38:26;;;;;;;4.33;3.33;;;;;;;;;;5114541;28;20438;-80
2021/08/25 03:40:53;;;;;;;4.37;3.30;;;;;;;;;;5112602;28;20462;-83
2021/08/25 03:43:20;;;;;;;4.20;3.57;;;;;;;;;;5108119;28;20794;-78
2021/08/25 03:45:47;;;;;;;4.80;3.77;;;;;;;;;;5110619;28;20436;-79
2021/08/25 03:48:16;;;;;;;3.53;3.20;;;;;;;;;;5112124;28;20441;-82
2021/08/25 03:50:43;;;;;;;4.50;3.30;;;;;;;;;;5112136;28;20998;-81
2021/08/25 03:53:10;;;;;;;4.00;3.60;;;;;;;;;;5112558;28;20962;-81
2021/08/25 03:55:37;;;;;;;5.00;3.80;;;;;;;;;;5113339;28;20439;-81
2021/08/25 03:58:05;;;;;;;5.80;3.43;;;;;;;;;;5114230;28;20451;-79
2021/08/25 04:00:32;;;;;;;5.70;3.63;;;;;;;;;;5114072;28;20490;-82
2021/08/25 04:02:59;;;;;;;4.40;3.50;;;;;;;;;;5112221;28;20427;-81
2021/08/25 04:05:28;;;;;;;3.90;3.53;;;;;;;;;;5107690;28;20422;-80
2021/08/25 04:07:55;;;;;;;4.33;3.47;;;;;;;;;;5109567;28;20442;-82
2021/08/25 04:10:22;;;;;;;5.20;4.07;;;;;;;;;;5111079;28;21449;-80
2021/08/25 04:12:49;;;;;;;4.00;3.50;;;;;;;;;;5111904;28;20549;-80
2021/08/25 04:15:18;;;;;;;7.13;4.30;;;;;;;;;;5112013;28;20434;-80
2021/08/25 04:17:45;;;;;;;5.43;3.90;;;;;;;;;;5113286;28;20519;-81
2021/08/25 04:20:13;;;;;;;3.90;3.37;;;;;;;;;;5113838;28;20462;-80
2021/08/25 04:22:42;;;;;;;4.40;4.00;;;;;;;;;;5113971;28;20442;-81
2021/08/25 04:25:09;;;;;;;3.97;3.30;;;;;;;;;;5114896;28;20434;-80
2021/08/25 04:27:36;;;;;;;4.87;3.90;;;;;;;;;;5107534;28;21005;-79
2021/08/25 04:30:05;;;;;;;4.30;3.40;;;;;;;;;;5110188;28;20465;-80
2021/08/25 04:32:32;;;;;;;4.23;3.67;;;;;;;;;;5111341;28;20434;-82
2021/08/25 04:34:59;;;;;;;3.50;3.20;;;;;;;;;;5111471;28;20486;-82
2021/08/25 04:37:26;;;;;;;8.50;3.40;;;;;;;;;;5111613;28;20446;-81
2021/08/25 04:39:55;;;;;;;5.00;4.20;;;;;;;;;;5112731;28;20435;-80
2021/08/25 04:42:22;;;;;;;5.60;3.80;;;;;;;;;;5113682;28;20809;-80
2021/08/25 04:44:49;;;;;;;5.40;3.93;;;;;;;;;;5113654;28;20443;-82
2021/08/25 04:47:16;;;;;;;4.57;3.93;;;;;;;;;;5111202;28;20445;-80
2021/08/25 04:49:44;;;;;;;5.07;4.30;;;;;;;;;;5107547;28;20759;-81
2021/08/25 04:52:11;;;;;;;4.43;3.90;;;;;;;;;;5110054;28;20798;-82
2021/08/25 04:54:38;;;;;;;6.37;4.57;;;;;;;;;;5111168;28;20486;-82
2021/08/25 04:57:06;;;;;;;4.30;3.80;;;;;;;;;;5111379;28;20442;-82
2021/08/25 04:59:34;;;;;;;5.90;4.20;;;;;;;;;;5111546;28;20435;-79
2021/08/25 05:02:01;;;;;;;3.93;3.53;;;;;;;;;;5112585;28;20844;-81
2021/08/25 05:04:28;;;;;;;4.67;3.87;;;;;;;;;;5113418;28;20445;-80
2021/08/25 05:06:55;;;;;;;7.10;3.50;;;;;;;;;;5113518;28;20442;-78
2021/08/25 05:09:22;;;;;;;4.57;3.80;;;;;;;;;;5110588;28;20524;-80
2021/08/25 05:11:49;;;;;;;4.97;4.03;;;;;;;;;;5106735;28;20446;-81
2021/08/25 05:14:18;;;;;;;6.20;4.30;;;;;;;;;;5109968;28;20967;-80
2021/08/25 05:16:45;;;;;;;6.47;4.60;;;;;;;;;;5110811;28;20447;-81
2021/08/25 05:19:12;;;;;;;5.30;3.87;;;;;;;;;;5111093;28;20439;-80
2021/08/25 05:21:39;;;;;;;4.17;3.77;;;;;;;;;;5115276;28;20462;-81
2021/08/25 05:24:06;;;;;;;5.97;4.00;;;;;;;;;;5116454;28;20438;-81
2021/08/25 05:26:33;;;;;;;4.13;3.70;;;;;;;;;;5117195;28;20566;-79
2021/08/25 05:29:01;;;;;;;4.33;3.50;;;;;;;;;;5113098;28;20434;-82
2021/08/25 05:31:29;;;;;;;4.63;3.80;;;;;;;;;;5110465;28;20451;-79
2021/08/25 05:33:57;;;;;;;5.27;3.80;;;;;;;;;;5112277;28;20479;-81
2021/08/25 05:36:24;;;;;;;5.37;3.83;;;;;;;;;;5115503;28;20552;-82
2021/08/25 05:38:51;;;;;;;5.97;4.27;;;;;;;;;;5115845;28;20489;-83
2021/08/25 05:41:18;;;;;;;4.40;3.63;;;;;;;;;;5116256;28;20924;-81
2021/08/25 05:43:45;;;;;;;4.97;4.27;;;;;;;;;;5116538;28;20452;-80
2021/08/25 05:46:12;;;;;;;7.33;4.20;;;;;;;;;;5116525;28;20512;-80
2021/08/25 05:48:41;;;;;;;4.23;3.43;;;;;;;;;;5116629;28;20438;-79
2021/08/25 05:51:08;;;;;;;4.07;3.53;;;;;;;;;;5111734;27;20458;-82
2021/08/25 05:53:35;;;;;;;6.83;3.80;;;;;;;;;;5110244;28;20439;-81
2021/08/25 05:56:02;;;;;;;6.37;3.63;;;;;;;;;;5113748;28;20559;-80
2021/08/25 05:58:29;;;;;;;7.83;4.37;;;;;;;;;;5114005;28;20434;-82
2021/08/25 06:00:57;;;;;;;4.30;3.80;;;;;;;;;;5114345;28;21045;-82
2021/08/25 06:03:24;;;;;;;3.50;3.20;;;;;;;;;;5115074;28;20438;-79
2021/08/25 06:05:54;;;;;;;4.13;3.17;;;;;;;;;;5115874;28;20438;-82
2021/08/25 06:08:21;;;;;;;6.63;3.83;;;;;;;;;;5115799;28;20495;-83
2021/08/25 06:10:48;;;;;;;4.03;3.20;;;;;;;;;;5115634;28;20867;-81
2021/08/25 06:13:16;;;;;;;4.43;3.70;;;;;;;;;;5111704;28;20876;-84
2021/08/25 06:15:43;;;;;;;7.07;4.40;;;;;;;;;;5110274;28;20470;-81
2021/08/25 06:18:10;;;;;;;4.03;3.60;;;;;;;;;;5112961;28;20449;-81
2021/08/25 06:20:37;;;;;;;4.70;4.00;;;;;;;;;;5113710;28;20440;-80
2021/08/25 06:23:06;;;;;;;4.47;3.90;;;;;;;;;;5113434;28;20418;-81
2021/08/25 06:25:33;;;;;;;6.97;4.50;;;;;;;;;;5114275;28;20887;-82
2021/08/25 06:28:01;;;;;;;4.57;4.17;;;;;;;;;;5115762;28;20912;-82
2021/08/25 06:30:28;;;;;;;5.20;4.00;;;;;;;;;;5115789;28;20530;-81
2021/08/25 06:32:56;;;;;;;5.03;4.40;;;;;;;;;;5114939;28;20439;-82
2021/08/25 06:35:23;;;;;;;6.03;4.10;;;;;;;;;;5112683;28;20573;-80
2021/08/25 06:37:50;;;;;;;4.90;3.80;;;;;;;;;;5109364;28;20431;-80
2021/08/25 06:40:19;;;;;;;6.60;4.20;;;;;;;;;;5111170;28;20454;-80
2021/08/25 06:42:46;;;;;;;6.00;4.40;;;;;;;;;;5112758;28;20961;-80
2021/08/25 06:45:13;;;;;;;5.77;4.37;;;;;;;;;;5112610;28;20792;-80
2021/08/25 06:47:41;;;;;;;5.50;3.83;;;;;;;;;;5112730;28;20448;-81
2021/08/25 06:50:08;;;;;;;4.33;3.50;;;;;;;;;;5111327;28;20550;-82
2021/08/25 06:52:35;;;;;;;5.50;4.13;;;;;;;;;;5109255;28;20435;-79
2021/08/25 06:55:03;;;;;;;5.10;4.17;;;;;;;;;;5112423;28;20478;-78
2021/08/25 06:57:31;;;;;;;6.40;4.63;;;;;;;;;;5112861;28;20466;-78
2021/08/25 06:59:58;;;;;;;4.43;3.40;;;;;;;;;;5112426;28;20962;-80
2021/08/25 07:02:25;;;;;;;4.43;3.63;;;;;;;;;;5112614;28;20449;-80
2021/08/25 07:04:52;;;;;;;5.00;3.70;;;;;;;;;;5115201;28;20445;-79
2021/08/25 07:07:20;;;;;;;7.50;4.13;;;;;;;;;;5115163;28;20951;-80
2021/08/25 07:09:47;;;;;;;5.80;4.53;;;;;;;;;;5114751;28;20898;-80
2021/08/25 07:12:14;;;;;;;3.70;3.30;;;;;;;;;;5112574;28;20856;-78
2021/08/25 07:14:43;;;;;;;4.40;3.70;;;;;;;;;;5108499;28;20811;-77
2021/08/25 07:17:10;;;;;;;5.57;4.00;;;;;;;;;;5111058;28;20939;-78
2021/08/25 07:19:41;;;;;;;5.50;4.13;;;;;;;;;;5112506;28;20810;-79
2021/08/25 07:22:10;;;;;;;6.20;4.50;;;;;;;;;;5112533;28;20947;-78
2021/08/25 07:24:38;;;;;;;6.43;4.50;;;;;;;;;;5112042;28;20441;-79
2021/08/25 07:27:05;;;;;;;6.00;3.57;;;;;;;;;;5114550;28;21008;-79
2021/08/25 07:29:32;;;;;;;6.67;4.30;;;;;;;;;;5114351;28;20458;-79
2021/08/25 07:32:01;;;;;;;7.03;3.57;;;;;;;;;;5096400;28;20797;-79
2021/08/25 07:34:28;;;;;;;4.23;3.73;;;;;;;;;;5111381;28;20532;-78
2021/08/25 07:36:57;;;;;;;3.70;3.17;;;;;;;;;;5108062;28;20430;-80
2021/08/25 07:39:24;;;;;;;7.13;4.50;;;;;;;;;;5110060;28;20427;-79
2021/08/25 07:41:52;;;;;;;4.80;3.83;;;;;;;;;;5111343;28;20457;-79
2021/08/25 07:44:20;;;;;;;5.37;3.47;;;;;;;;;;5094317;28;20450;-79
2021/08/25 07:46:47;;;;;;;6.57;3.60;;;;;;;;;;5112395;28;20792;-79
2021/08/25 07:49:16;;;;;;;4.87;4.03;;;;;;;;;;5113292;28;20932;-79
2021/08/25 07:51:43;;;;;;;5.67;3.93;;;;;;;;;;5114095;28;20549;-80
2021/08/25 07:54:10;;;;;;;6.03;3.60;;;;;;;;;;5095866;28;20448;-80
2021/08/25 07:56:38;;;;;;;4.70;3.60;;;;;;;;;;5112298;28;20446;-79
2021/08/25 07:59:05;;;;;;;6.07;3.80;;;;;;;;;;5108110;28;20431;-79
2021/08/25 08:01:33;;;;;;;7.50;4.00;;;;;;;;;;5110648;28;20447;-79
2021/08/25 08:04:00;;;;;;;5.90;4.13;;;;;;;;;;5111351;28;20943;-80
2021/08/25 08:06:28;;;;;;;5.83;4.03;;;;;;;;;;5112109;28;20545;-81
2021/08/25 08:08:56;;;;;;;6.70;3.70;;;;;;;;;;5111603;28;20469;-78
2021/08/25 08:11:23;;;;;;;4.63;3.80;;;;;;;;;;5108403;28;20963;-79
2021/08/25 08:13:51;;;;;;;4.47;3.80;;;;;;;;;;5108937;28;20426;-79
2021/08/25 08:16:20;;;;;;;5.03;3.70;;;;;;;;;;5111197;28;20840;-79
2021/08/25 08:18:57;;;;;;;5.10;3.97;;;;;;;;;;5111860;28;20434;-84
2021/08/25 08:21:25;;;;;;;4.50;3.83;;;;;;;;;;5097099;28;20557;-80
2021/08/25 08:23:53;;;;;;;4.80;3.60;;;;;;;;;;5095441;28;20460;-80
2021/08/25 08:26:21;;;;;;;5.73;3.53;;;;;;;;;;5114115;28;20533;-79
2021/08/25 08:28:48;;;;;;;6.50;4.30;;;;;;;;;;5113692;28;20811;-80
2021/08/25 08:31:15;;;;;;;5.50;3.83;;;;;;;;;;5113902;28;20459;-80
2021/08/25 08:33:42;;;;;;;4.90;3.40;;;;;;;;;;5109207;28;20525;-80
2021/08/25 08:36:10;;;;;;;4.93;3.50;;;;;;;;;;5108015;28;20567;-79
2021/08/25 08:38:37;;;;;;;4.53;3.57;;;;;;;;;;5110593;28;20803;-79
2021/08/25 08:41:05;;;;;;;4.33;2.97;;;;;;;;;;5111657;28;20472;-80
2021/08/25 08:43:33;;;;;;;5.37;3.97;;;;;;;;;;5110883;28;20446;-81
2021/08/25 08:46:00;;;;;;;5.47;3.43;;;;;;;;;;5111954;28;20806;-78
2021/08/25 08:48:27;;;;;;;5.07;3.53;;;;;;;;;;5113501;28;20430;-80
2021/08/25 08:50:56;;;;;;;6.13;4.23;;;;;;;;;;5114254;28;20806;-83
2021/08/25 08:53:23;;;;;;;5.00;3.80;;;;;;;;;;5113620;28;20864;-83
2021/08/25 08:55:50;;;;;;;6.03;3.50;;;;;;;;;;5112871;28;20497;-82
2021/08/25 08:58:19;;;;;;;4.70;3.47;;;;;;;;;;5111325;28;20430;-82
2021/08/25 09:00:46;;;;;;;4.37;3.30;;;;;;;;;;5113988;28;20462;-79
2021/08/25 09:03:19;;;;;;;3.90;3.47;;;;;;;;;;5118992;27;20449;-80
2021/08/25 09:05:46;;;;;;;5.73;3.60;;;;;;;;;;5127568;27;20458;-84
2021/08/25 09:08:13;;;;;;;4.57;3.10;;;;;;;;;;5114306;28;20466;-82
2021/08/25 09:10:41;;;;;;;4.20;3.10;;;;;;;;;;5116943;28;20469;-81
2021/08/25 09:13:09;;;;;;;4.70;3.53;;;;;;;;;;5117163;28;20789;-84
2021/08/25 09:15:38;;;;;;;4.20;3.17;;;;;;;;;;5113160;28;20480;-82
2021/08/25 09:18:06;;;;;;;4.80;3.77;;;;;;;;;;5110740;28;20916;-83
2021/08/25 09:20:34;;;;;;;5.50;3.13;;;;;;;;;;5113799;28;20527;-83
2021/08/25 09:23:09;;;;;;;3.80;3.13;;;;;;;;;;5094808;28;20434;-79
2021/08/25 09:25:37;;;;;;;5.67;3.67;;;;;;;;;;5096504;28;20434;-82
2021/08/25 09:28:04;;;;;;;7.53;3.93;;;;;;;;;;5096808;28;20438;-77
2021/08/25 09:30:46;;;;;;;6.57;4.50;;;;;;;;;;5098944;28;20468;-79
2021/08/25 09:33:15;;;;;;;8.07;4.73;;;;;;;;;;5112758;28;20448;-80
2021/08/25 09:35:42;;;;;;;5.97;4.67;;;;;;;;;;5110179;28;20975;-77
2021/08/25 09:38:16;;;;;;;6.67;4.60;;;;;;;;;;5113447;28;20449;-77
2021/08/25 09:40:45;;;;;;;6.50;4.50;;;;;;;;;;5114226;28;20454;-80
2021/08/25 09:43:13;;;;;;;7.17;4.30;;;;;;;;;;5095408;28;20927;-75
2021/08/25 09:45:40;;;;;;;5.30;4.23;;;;;;;;;;5114096;28;20430;-79
2021/08/25 09:48:07;;;;;;;4.43;3.57;;;;;;;;;;5115288;28;20765;-80
2021/08/25 09:50:36;;;;;;;4.70;3.87;;;;;;;;;;5110209;28;20458;-76
2021/08/25 09:53:03;;;;;;;5.43;4.77;;;;;;;;;;5111405;28;20446;-79
2021/08/25 09:55:31;;;;;;;4.70;4.20;;;;;;;;;;5113639;28;20478;-78
2021/08/25 09:57:59;;;;;;;4.73;3.90;;;;;;;;;;5113974;28;20454;-76
2021/08/25 10:00:26;;;;;;;7.13;4.70;;;;;;;;;;5114184;28;20468;-76
2021/08/25 10:02:54;;;;;;;4.30;3.37;;;;;;;;;;5115784;28;20468;-77
2021/08/25 10:05:28;;;;;;;4.43;3.37;;;;;;;;;;5116100;28;20438;-78
2021/08/25 10:07:57;;;;;;;5.63;4.03;;;;;;;;;;5115232;28;20440;-77
2021/08/25 10:10:24;;;;;;;6.50;5.03;;;;;;;;;;5115733;28;20466;-76
2021/08/25 10:12:52;;;;;;;8.63;3.87;;;;;;;;;;5110337;28;20427;-77
2021/08/25 10:15:35;;;;;;;6.40;3.47;;;;;;;;;;5092755;28;20573;-80
2021/08/25 10:18:21;;;;;;;4.80;3.37;;;;;;;;;;5112916;28;20462;-76
2021/08/25 10:20:48;;;;;;;4.77;3.77;;;;;;;;;;5102259;28;20461;-79
2021/08/25 10:23:17;;;;;;;4.27;3.00;;;;;;;;;;5114384;28;20541;-77
2021/08/25 10:25:59;;;;;;;6.37;3.70;;;;;;;;;;5115387;28;20443;-77
2021/08/25 10:28:26;;;;;;;3.80;3.10;;;;;;;;;;5100325;28;20434;-77
2021/08/25 10:30:57;;;;;;;5.10;4.10;;;;;;;;;;5115708;28;20470;-79
2021/08/25 10:33:24;;;;;;;7.00;3.63;;;;;;;;;;5114789;28;20790;-77
2021/08/25 10:35:51;;;;;;;5.23;3.90;;;;;;;;;;5108917;28;20475;-76
2021/08/25 10:38:23;;;;;;;4.80;3.90;;;;;;;;;;5111649;28;20445;-77
2021/08/25 10:40:51;;;;;;;5.83;4.00;;;;;;;;;;5113689;28;20462;-75
2021/08/25 10:43:33;;;;;;;4.70;3.87;;;;;;;;;;5113846;28;20442;-77
2021/08/25 10:46:00;;;;;;;6.33;3.50;;;;;;;;;;5113084;28;20434;-77
2021/08/25 10:48:42;;;;;;;4.53;3.60;;;;;;;;;;5113386;28;20458;-76
2021/08/25 10:51:23;;;;;;;4.23;3.33;;;;;;;;;;5098949;28;20454;-76
2021/08/25 10:53:52;;;;;;;5.83;3.83;;;;;;;;;;5097440;28;20444;-77
2021/08/25 10:56:28;;;;;;;5.27;3.70;;;;;;;;;;5113910;28;20478;-77
2021/08/25 10:58:58;;;;;;;5.20;3.70;;;;;;;;;;5090806;28;20444;-76
2021/08/25 11:01:28;;;;;;;4.93;3.77;;;;;;;;;;5111064;28;20458;-77
2021/08/25 11:03:55;;;;;;;5.43;3.67;;;;;;;;;;5095506;28;20982;-76
2021/08/25 11:06:31;;;;;;;5.10;3.90;;;;;;;;;;5112765;28;20435;-77
2021/08/25 11:09:13;;;;;;;7.33;3.63;;;;;;;;;;5113133;28;20466;-77
2021/08/25 11:11:45;;;;;;;7.80;3.30;;;;;;;;;;5091601;28;20557;-76
2021/08/25 11:14:16;;;;;;;4.43;3.77;;;;;;;;;;5111288;28;20524;-79
2021/08/25 11:16:43;;;;;;;4.80;3.70;;;;;;;;;;5090969;28;20480;-80
2021/08/25 11:19:20;;;;;;;4.17;3.30;;;;;;;;;;5109341;28;20438;-78
2021/08/25 11:21:47;;;;;;;4.80;3.37;;;;;;;;;;5112411;28;20466;-80
2021/08/25 11:24:14;;;;;;;5.00;3.57;;;;;;;;;;5094382;28;20437;-82
2021/08/25 11:26:43;;;;;;;7.43;3.97;;;;;;;;;;5106474;28;20450;-81
2021/08/25 11:29:16;;;;;;;7.00;3.50;;;;;;;;;;5098281;28;20467;-78
2021/08/25 11:31:44;;;;;;;6.70;4.07;;;;;;;;;;5108591;28;20466;-82
2021/08/25 11:34:12;;;;;;;6.60;3.93;;;;;;;;;;5114773;28;20792;-78
2021/08/25 11:36:52;;;;;;;5.37;3.93;;;;;;;;;;5114646;28;20890;-83
2021/08/25 11:39:19;;;;;;;5.20;3.70;;;;;;;;;;5107226;28;20937;-80
2021/08/25 11:41:50;;;;;;;5.70;3.60;;;;;;;;;;5106025;28;20454;-79
2021/08/25 11:44:33;;;;;;;7.13;4.20;;;;;;;;;;5111971;28;20542;-81
2021/08/25 11:47:09;;;;;;;4.10;3.60;;;;;;;;;;5112410;28;20442;-76
2021/08/25 11:49:36;;;;;;;5.00;4.00;;;;;;;;;;5111251;28;20462;-78
2021/08/25 11:52:04;;;;;;;5.27;4.20;;;;;;;;;;5112860;28;20475;-78
2021/08/25 11:54:31;;;;;;;5.70;3.90;;;;;;;;;;5114261;28;20817;-79
2021/08/25 11:57:00;;;;;;;6.77;4.93;;;;;;;;;;5113761;28;20505;-77
2021/08/25 11:59:27;;;;;;;7.63;4.53;;;;;;;;;;5113674;28;20447;-78
2021/08/25 12:02:03;;;;;;;6.10;4.67;;;;;;;;;;5108258;28;20455;-78
2021/08/25 12:04:31;;;;;;;6.30;4.53;;;;;;;;;;5091194;28;20442;-77
2021/08/25 12:06:58;;;;;;;5.47;4.33;;;;;;;;;;5111051;28;20530;-77
2021/08/25 12:09:34;;;;;;;6.60;4.10;;;;;;;;;;5082317;28;21019;-77
2021/08/25 12:12:03;;;;;;;5.97;4.43;;;;;;;;;;5071678;28;20928;-79
2021/08/25 12:14:30;;;;;;;7.00;5.40;;;;;;;;;;5072702;28;20460;-78
2021/08/25 12:17:03;;;;;;;8.03;4.77;;;;;;;;;;5092747;28;20487;-77
2021/08/25 12:19:31;;;;;;;6.70;4.90;;;;;;;;;;5093789;28;20443;-81
2021/08/25 12:21:58;;;;;;;5.40;4.70;;;;;;;;;;5092988;28;20464;-81
2021/08/25 12:24:25;;;;;;;5.30;4.33;;;;;;;;;;5072472;28;21004;-80
2021/08/25 12:26:55;;;;;;;7.80;4.57;;;;;;;;;;5067984;28;20476;-80
2021/08/25 12:29:30;;;;;;;5.37;4.17;;;;;;;;;;5073449;28;20444;-79
2021/08/25 12:31:59;;;;;;;6.90;4.77;;;;;;;;;;5058508;28;20464;-81
2021/08/25 12:34:26;;;;;;;8.73;5.50;;;;;;;;;;5075016;28;20490;-77
2021/08/25 12:36:56;;;;;;;6.13;4.30;;;;;;;;;;5081930;28;21034;-79
2021/08/25 12:39:27;;;;;;;8.17;4.53;;;;;;;;;;5072869;28;20467;-78
2021/08/25 12:41:54;;;;;;;5.17;4.53;;;;;;;;;;5092604;28;20549;-78
2021/08/25 12:44:22;;;;;;;8.67;6.00;;;;;;;;;;5092395;28;20798;-78
2021/08/25 12:46:51;;;;;;;7.40;4.80;;;;;;;;;;5076033;28;20424;-79
2021/08/25 12:49:18;;;;;;;8.30;4.60;;;;;;;;;;5067402;28;20460;-81
2021/08/25 12:51:46;;;;;;;8.57;4.40;;;;;;;;;;5074908;28;20463;-82
2021/08/25 12:54:13;;;;;;;7.73;5.20;;;;;;;;;;5090254;28;20447;-81
2021/08/25 12:56:40;;;;;;;11.17;4.50;;;;;;;;;;5080790;28;20478;-78
2021/08/25 12:59:07;;;;;;;7.50;5.23;;;;;;;;;;5076394;28;20459;-81
2021/08/25 13:01:35;;;;;;;5.47;3.73;;;;;;;;;;5085504;28;20470;-78
2021/08/25 13:04:03;;;;;;;7.60;4.90;;;;;;;;;;5075524;28;20428;-81
2021/08/25 13:06:31;;;;;;;6.67;4.60;;;;;;;;;;5074478;28;20540;-81
2021/08/25 13:08:58;;;;;;;6.50;4.47;;;;;;;;;;5090860;28;20450;-79
2021/08/25 13:11:25;;;;;;;5.20;4.40;;;;;;;;;;5107497;28;20448;-80
2021/08/25 13:13:52;;;;;;;6.90;4.37;;;;;;;;;;5110546;28;20466;-80
2021/08/25 13:16:19;;;;;;;5.83;4.37;;;;;;;;;;5110947;28;20474;-80
2021/08/25 13:18:47;;;;;;;7.30;4.70;;;;;;;;;;5111729;28;20529;-81
2021/08/25 13:21:15;;;;;;;5.67;4.40;;;;;;;;;;5112066;28;20465;-80
2021/08/25 13:23:44;;;;;;;7.10;5.17;;;;;;;;;;5112848;28;20529;-78
2021/08/25 13:26:12;;;;;;;6.30;4.67;;;;;;;;;;5113353;28;20450;-81
2021/08/25 13:28:39;;;;;;;6.53;4.47;;;;;;;;;;5115759;28;20850;-81
2021/08/25 13:31:06;;;;;;;7.77;5.20;;;;;;;;;;5111537;28;20458;-78
2021/08/25 13:33:33;;;;;;;6.43;5.00;;;;;;;;;;5105859;28;20950;-79
2021/08/25 13:36:00;;;;;;;6.83;4.70;;;;;;;;;;5108807;28;20470;-81
2021/08/25 13:38:29;;;;;;;7.67;5.30;;;;;;;;;;5112762;28;20435;-81
2021/08/25 13:40:58;;;;;;;6.43;4.77;;;;;;;;;;5116883;28;20468;-80
2021/08/25 13:43:25;;;;;;;5.70;4.70;;;;;;;;;;5116013;28;20473;-84
2021/08/25 13:45:52;;;;;;;7.63;4.70;;;;;;;;;;5112937;28;20458;-83
2021/08/25 13:48:19;;;;;;;7.73;4.87;;;;;;;;;;5111335;28;20431;-80
2021/08/25 13:50:46;;;;;;;10.07;5.40;;;;;;;;;;5112341;28;20457;-83
2021/08/25 13:53:13;;;;;;;6.20;4.40;;;;;;;;;;5115069;28;20438;-82
2021/08/25 13:55:42;;;;;;;7.10;4.63;;;;;;;;;;5117497;28;20434;-83
2021/08/25 13:58:10;;;;;;;7.00;4.87;;;;;;;;;;5116662;28;20466;-87
2021/08/25 14:00:38;;;;;;;7.87;5.50;;;;;;;;;;5116172;28;20454;-82
2021/08/25 14:03:05;;;;;;;7.37;4.67;;;;;;;;;;5116945;28;20438;-83
2021/08/25 14:05:32;;;;;;;6.50;5.43;;;;;;;;;;5116908;28;20453;-81
2021/08/25 14:07:59;;;;;;;7.57;5.00;;;;;;;;;;5116535;28;20434;-81
2021/08/25 14:10:27;;;;;;;8.13;4.90;;;;;;;;;;5110320;28;20460;-86
2021/08/25 14:12:56;;;;;;;6.50;4.37;;;;;;;;;;5111744;28;20426;-84
2021/08/25 14:15:23;;;;;;;7.93;5.90;;;;;;;;;;5113685;28;20435;-82
2021/08/25 14:17:50;;;;;;;10.77;5.97;;;;;;;;;;5114013;28;20478;-87
2021/08/25 14:20:17;;;;;;;8.97;5.70;;;;;;;;;;5113841;28;20548;-78
2021/08/25 14:22:44;;;;;;;11.80;6.33;;;;;;;;;;5114628;28;20463;-85
2021/08/25 14:25:12;;;;;;;9.60;6.07;;;;;;;;;;5116137;28;20441;-76
2021/08/25 14:27:40;;;;;;;7.50;6.33;;;;;;;;;;5116557;28;20446;-85
2021/08/25 14:30:09;;;;;;;12.13;6.40;;;;;;;;;;5116308;28;20989;-80
2021/08/25 14:32:36;;;;;;;7.43;5.50;;;;;;;;;;5110683;28;20423;-81
2021/08/25 14:35:03;;;;;;;9.07;6.97;;;;;;;;;;5110534;28;20911;-80
2021/08/25 14:37:32;;;;;;;8.50;6.20;;;;;;;;;;5113210;28;20482;-80
2021/08/25 14:40:00;;;;;;;7.53;6.23;;;;;;;;;;5113671;28;20497;-78
2021/08/25 14:42:27;;;;;;;8.37;6.30;;;;;;;;;;5113856;28;20445;-81
2021/08/25 14:44:54;;;;;;;8.40;6.43;;;;;;;;;;5114346;28;20439;-84
2021/08/25 14:47:22;;;;;;;10.03;6.27;;;;;;;;;;5110494;28;20780;-81
2021/08/25 14:49:49;;;;;;;12.00;7.20;;;;;;;;;;5110864;28;20434;-79